Latest Weather Observations for Launceston Airport

IDT60801

Issued at 8:05 pm EST Thursday 21 August 2014 (issued every 30 minutes, with the page automatically refreshed every 10 minutes)

About weather observations | Map of weather stations | Latest weather observations for TAS | Other Formats
Station Details ID: 091311 Name: LAUNCESTON AIRPORT Lat: -41.55 Lon: 147.21 Height: 166.9 m
Data from the previous 72 hours. | See also: Recent months at Launceston Airport
Date/Time
EST
Temp
°C
App
Temp
°C
Dew
Point
Rel
Hum
%
Delta-T
°C
Wind Press
QNH
hPa
Press
MSL
hPa
Rain
since 9 am
mm
Dir
 
Spd
km/h
Gust
km/h
Spd
kts
Gust
kts
21/08:00pm 7.5 5.8 4.1 79 1.5 NW 2 7 1 4 1032.8 1033.2 0.0
21/07:30pm 7.4 6.1 4.0 79 1.5 NW 0 0 0 0 1032.6 - 0.0
21/07:00pm 7.2 5.5 4.2 81 1.3 NW 2 7 1 4 1032.4 1032.8 0.0
21/06:30pm 8.6 7.3 4.2 74 1.9 CALM 0 0 0 0 1032.2 - 0.0
21/06:00pm 9.9 7.5 4.3 68 2.5 SW 6 7 3 4 1031.9 1032.3 0.0
21/05:30pm 9.5 7.9 4.3 70 2.3 SW 2 7 1 4 1031.6 - 0.0
21/05:00pm 10.9 8.4 4.8 66 2.8 SW 7 9 4 5 1031.3 1031.7 0.0
21/04:30pm 11.7 8.8 4.9 63 3.1 WSW 9 11 5 6 1031.2 - 0.0
21/04:00pm 12.8 10.4 4.3 56 3.9 WSW 6 9 3 5 1031.1 1031.4 0.0
21/03:30pm 13.9 11.8 3.7 50 4.7 WNW 4 11 2 6 1031.0 - 0.0
21/03:00pm 14.3 12.7 4.3 51 4.6 WSW 2 7 1 4 1031.0 1031.3 0.0
21/02:30pm 14.9 13.8 4.9 51 4.7 CALM 0 9 0 5 1031.1 - 0.0
21/02:00pm 14.3 12.4 4.9 53 4.4 NW 4 11 2 6 1031.3 1031.7 0.0
21/01:30pm 13.7 11.6 4.0 52 4.5 WSW 4 13 2 7 1031.5 - 0.0
21/01:00pm 13.0 10.1 4.4 56 3.9 S 9 15 5 8 1031.7 1032.1 0.0
21/12:30pm 12.1 9.5 4.1 58 3.6 S 7 13 4 7 1031.9 - 0.0
21/12:00pm 11.5 8.3 4.9 64 3.0 S 11 15 6 8 1032.3 1032.7 0.0
21/11:30am 10.8 8.2 6.2 73 2.2 S 9 13 5 7 1032.8 - 0.0
21/11:00am 9.4 6.7 5.4 76 1.8 S 9 15 5 8 1033.0 1033.4 0.0
21/10:30am 7.9 5.4 4.8 81 1.4 S 7 11 4 6 1033.3 - 0.0
21/10:00am 6.2 3.2 4.0 86 0.9 S 9 13 5 7 1033.3 1033.7 0.0
21/09:30am 4.5 0.9 3.2 91 0.5 S 11 13 6 7 1033.4 - 0.0
21/09:00am 3.4 -0.7 2.2 92 0.5 S 13 17 7 9 1033.3 1033.7 0.0
21/08:30am 2.5 -1.3 1.9 96 0.2 SSW 11 15 6 8 1033.3 - 0.0
21/08:00am 1.6 -2.7 1.2 97 0.2 SSW 13 15 7 8 1033.1 1033.5 0.0
21/07:30am 1.2 -3.1 0.8 97 0.2 SSW 13 15 7 8 1032.7 - 0.0
21/07:00am 1.3 -1.9 0.9 97 0.1 S 7 9 4 5 1032.3 1032.7 0.0
21/06:30am 1.2 -2.4 0.8 97 0.2 S 9 11 5 6 1031.8 - 0.0
21/06:00am 1.2 -2.4 0.8 97 0.1 SSW 9 11 5 6 1031.7 1032.1 0.0
21/05:30am 1.1 -2.9 0.5 96 0.2 S 11 13 6 7 1031.6 - 0.0
21/05:00am 1.1 -2.9 0.5 96 0.2 SSW 11 11 6 6 1031.4 1031.8 0.0
21/04:30am 1.3 -2.7 0.7 96 0.2 S 11 13 6 7 1031.1 - 0.0
21/04:26am 1.2 -2.8 0.6 96 0.2 S 11 11 6 6 1031.1 - 0.0
21/04:00am 1.3 -2.7 0.7 96 0.2 S 11 11 6 6 1030.9 1031.2 0.0
21/03:30am 0.9 -2.4 -0.2 92 0.4 SSE 7 9 4 5 1030.7 - 0.0
21/03:27am 1.0 -2.3 -0.1 92 0.4 SSE 7 9 4 5 1030.7 - 0.0
21/03:00am 3.2 0.2 2.3 94 0.4 WSW 7 9 4 5 1030.4 1030.8 0.0
21/02:30am 2.9 -0.1 2.2 95 0.3 SSW 7 9 4 5 1030.5 - 0.0
21/02:00am 2.4 -0.6 1.7 95 0.3 SSW 7 9 4 5 1030.8 1031.1 0.0
21/01:30am 2.1 -0.8 1.2 94 0.3 S 6 7 3 4 1030.7 - 0.0
21/01:00am 2.0 -1.2 1.0 93 0.4 S 7 9 4 5 1030.5 1030.9 0.0
21/12:30am 2.4 0.2 0.8 89 0.6 S 2 7 1 4 1030.5 - 0.0
21/12:00am 3.2 0.2 1.7 90 0.6 SSW 7 9 4 5 1030.5 1030.9 0.0
 
Date/Time
EST
Temp
°C
App
Temp
°C
Dew
Point
Rel
Hum
%
Delta-T
°C
Wind Press
QNH
hPa
Press
MSL
hPa
Rain
since 9 am
mm
Dir
 
Spd
km/h
Gust
km/h
Spd
kts
Gust
kts
20/11:30pm 3.7 2.0 1.6 86 0.8 CALM 0 0 0 0 1030.3 - 0.0
20/11:00pm 4.6 3.0 2.6 87 0.8 CALM 0 0 0 0 1030.2 1030.6 0.0
20/10:30pm 3.8 1.0 2.0 88 0.7 S 6 7 3 4 1030.1 - 0.0
20/10:00pm 4.2 2.1 1.9 85 0.9 NW 2 7 1 4 1030.0 1030.4 0.0
20/09:30pm 5.2 1.9 2.6 83 1.1 NW 9 9 5 5 1029.8 - 0.0
20/09:00pm 6.0 2.8 3.0 81 1.2 NNW 9 11 5 6 1029.5 1029.9 0.0
20/08:30pm 5.3 1.7 2.8 84 1.0 NNW 11 13 6 7 1029.3 - 0.0
20/08:00pm 6.1 2.9 3.3 82 1.2 NNW 9 11 5 6 1028.9 1029.3 0.0
20/07:30pm 5.3 1.4 1.2 75 1.6 NNW 11 13 6 7 1028.5 - 0.0
20/07:00pm 5.8 2.6 0.6 69 2.0 W 7 15 4 8 1028.1 1028.5 0.0
20/06:30pm 9.5 7.6 2.8 63 2.9 SW 2 7 1 4 1027.7 - 0.0
20/06:00pm 9.9 8.1 1.3 55 3.6 CALM 0 0 0 0 1027.3 1027.7 0.0
20/05:30pm 11.0 8.8 1.0 50 4.2 SSW 2 6 1 3 1027.0 - 0.0
20/05:00pm 12.0 9.4 0.8 46 4.7 S 4 9 2 5 1026.6 1027.0 0.0
20/04:30pm 13.1 11.3 1.5 45 5.0 CALM 0 0 0 0 1026.4 - 0.0
20/04:00pm 13.8 12.1 2.1 45 5.1 CALM 0 6 0 3 1026.2 1026.6 0.0
20/03:30pm 13.3 10.4 2.8 49 4.7 SSE 7 13 4 7 1026.2 - 0.0
20/03:00pm 13.2 11.4 1.2 44 5.1 CALM 0 6 0 3 1026.0 1026.3 0.0
20/02:30pm 13.2 10.7 1.5 45 5.1 ENE 4 7 2 4 1025.9 - 0.0
20/02:00pm 13.2 10.3 2.7 49 4.6 W 7 13 4 7 1025.8 1026.1 0.0
20/01:30pm 12.5 9.6 1.5 47 4.7 SSE 6 13 3 7 1025.8 - 0.0
20/01:00pm 12.6 9.3 2.5 50 4.4 WSW 9 15 5 8 1026.0 1026.3 0.0
20/12:30pm 12.0 8.4 2.7 53 4.1 SSE 11 15 6 8 1026.2 - 0.0
20/12:00pm 11.6 7.7 3.4 57 3.6 S 13 19 7 10 1026.4 1026.8 0.0
20/11:30am 10.7 6.2 2.3 56 3.6 S 15 20 8 11 1026.7 - 0.0
20/11:00am 10.3 5.6 3.1 61 3.1 S 17 22 9 12 1026.8 1027.2 0.0
20/10:30am 9.8 5.5 3.5 65 2.8 S 15 20 8 11 1026.7 - 0.0
20/10:00am 9.0 4.8 3.6 69 2.3 S 15 17 8 9 1026.6 1027.0 0.0
20/09:30am 6.6 2.1 2.1 73 1.9 S 15 19 8 10 1026.6 - 0.0
20/09:00am 5.6 1.1 2.4 80 1.3 S 15 20 8 11 1026.5 1026.9 0.0
20/08:30am 4.3 0.1 1.8 84 1.0 S 13 17 7 9 1026.3 - 0.0
20/08:00am 3.2 -1.1 1.1 86 0.8 S 13 15 7 8 1025.9 1026.2 0.0
20/07:30am 2.4 -2.3 0.8 89 0.6 S 15 19 8 10 1025.5 - 0.0
20/07:00am 1.8 -2.6 0.5 91 0.5 S 13 17 7 9 1025.1 1025.4 0.0
20/06:30am 2.2 -2.5 0.6 89 0.6 S 15 17 8 9 1024.7 - 0.0
20/06:00am 2.4 -1.9 0.8 89 0.6 SSW 13 15 7 8 1024.5 1024.8 0.0
20/05:30am 3.4 -0.9 1.1 85 0.9 S 13 15 7 8 1024.4 - 0.0
20/05:00am 4.4 0.3 2.1 85 0.9 S 13 15 7 8 1024.1 1024.5 0.0
20/04:30am 4.2 0.5 2.1 86 0.8 S 11 15 6 8 1024.1 - 0.0
20/04:00am 3.4 -0.8 1.6 88 0.7 S 13 15 7 8 1023.9 1024.3 0.0
20/03:30am 2.7 -1.2 1.1 89 0.6 S 11 15 6 8 1024.0 - 0.0
20/03:00am 3.1 -0.8 1.2 87 0.7 S 11 13 6 7 1023.9 1024.3 0.0
20/02:30am 2.9 -1.4 1.1 88 0.7 S 13 15 7 8 1024.0 - 0.0
20/02:00am 3.5 -1.1 1.7 88 0.7 S 15 17 8 9 1024.1 1024.5 0.0
20/01:30am 3.3 -0.9 1.8 90 0.6 S 13 15 7 8 1024.1 - 0.0
20/01:00am 3.4 0.6 1.9 90 0.6 S 6 11 3 6 1024.1 1024.5 0.0
20/12:30am 3.5 -0.3 1.7 88 0.7 S 11 13 6 7 1024.1 - 0.0
20/12:00am 3.5 -0.3 1.7 88 0.7 S 11 13 6 7 1024.0 1024.4 0.0
 
Date/Time
EST
Temp
°C
App
Temp
°C
Dew
Point
Rel
Hum
%
Delta-T
°C
Wind Press
QNH
hPa
Press
MSL
hPa
Rain
since 9 am
mm
Dir
 
Spd
km/h
Gust
km/h
Spd
kts
Gust
kts
19/11:30pm 4.0 0.7 2.2 88 0.7 SSE 9 13 5 7 1024.0 - 0.0
19/11:00pm 6.0 4.6 3.5 84 1.1 CALM 0 0 0 0 1023.9 1024.3 0.0
19/10:30pm 5.6 4.2 3.3 85 1.0 CALM 0 0 0 0 1024.1 - 0.0
19/10:00pm 5.8 4.4 3.3 84 1.0 CALM 0 0 0 0 1023.9 1024.3 0.0
19/09:30pm 5.7 4.2 3.2 84 1.0 CALM 0 0 0 0 1023.9 - 0.0
19/09:00pm 6.0 4.7 4.2 88 0.8 CALM 0 0 0 0 1023.7 1024.1 0.0
19/08:30pm 4.9 2.5 2.3 83 1.1 WNW 4 6 2 3 1023.6 - 0.0
19/08:00pm 5.6 2.8 3.1 84 1.0 NNW 7 9 4 5 1023.3 1023.7 0.0
19/07:30pm 5.8 2.8 2.1 77 1.5 NNW 7 7 4 4 1023.1 - 0.0
19/07:00pm 5.8 2.4 2.1 77 1.5 N 9 11 5 6 1022.8 1023.2 0.0
19/06:30pm 6.2 3.2 0.9 69 2.1 SE 6 17 3 9 1022.6 - 0.0
19/06:00pm 8.5 6.7 1.4 61 2.9 CALM 0 0 0 0 1022.2 1022.6 0.0
19/05:30pm 9.5 7.7 1.4 57 3.4 CALM 0 0 0 0 1022.0 - 0.0
19/05:00pm 10.8 9.0 1.4 52 4.0 CALM 0 0 0 0 1021.9 1022.3 0.0
19/04:30pm 11.5 9.7 1.5 50 4.3 CALM 0 0 0 0 1021.9 - 0.0
19/04:00pm 12.1 9.9 0.8 46 4.7 W 2 9 1 5 1022.0 1022.4 0.0
19/03:30pm 12.3 9.7 1.0 46 4.8 W 4 7 2 4 1022.0 - 0.0
19/03:00pm 12.1 10.1 0.2 44 4.9 CALM 0 6 0 3 1022.1 1022.5 0.0
19/02:30pm 11.7 8.7 0.8 47 4.6 E 6 11 3 6 1022.1 - 0.0
19/02:00pm 11.4 9.1 0.5 47 4.5 E 2 9 1 5 1022.0 1022.4 0.0
19/01:30pm 10.9 8.1 -0.5 45 4.6 SE 4 9 2 5 1022.3 - 0.0
19/01:00pm 10.7 7.8 1.5 53 3.9 S 6 9 3 5 1022.7 1023.1 0.0
19/12:30pm 9.8 6.4 -0.4 49 4.1 E 7 13 4 7 1023.2 - 0.0
19/12:00pm 10.0 7.0 0.6 52 3.8 SE 6 11 3 6 1023.7 1024.1 0.0
19/11:30am 9.7 7.3 2.3 60 3.2 S 4 9 2 5 1024.2 - 0.0
19/11:00am 8.7 5.8 2.7 66 2.5 SE 7 11 4 6 1024.7 1025.0 0.0
19/10:30am 7.5 3.7 2.0 68 2.3 SSE 11 15 6 8 1025.0 - 0.0
19/10:00am 6.5 2.7 1.6 71 2.0 S 11 15 6 8 1024.9 1025.2 0.0
19/09:30am 5.1 2.3 1.8 79 1.3 SE 6 7 3 4 1025.0 - 0.0
19/09:00am 3.7 1.9 1.4 85 0.9 CALM 0 0 0 0 1025.2 1025.5 0.0
19/08:30am 1.7 -1.6 0.2 90 0.6 S 7 9 4 5 1025.1 - 0.0
19/08:00am 0.7 -3.0 -0.2 94 0.3 S 9 11 5 6 1024.9 1025.2 0.0
19/07:30am -0.4 -2.6 -1.2 94 0.3 CALM 0 0 0 0 1024.7 - 0.0
19/07:00am -0.5 -2.7 -1.3 94 0.3 CALM 0 0 0 0 1024.4 1024.7 0.0
19/06:30am -0.2 -3.7 -1.2 93 0.3 S 7 9 4 5 1024.0 - 0.0
19/06:00am 0.1 -4.5 -0.7 94 0.3 SSW 13 13 7 7 1023.9 1024.3 0.0
19/05:30am 0.3 -3.8 -0.5 94 0.3 S 11 13 6 7 1023.8 - 0.0
19/05:00am 0.5 -3.6 -0.5 93 0.4 S 11 13 6 7 1023.7 1024.1 0.0
19/04:30am 0.4 -4.1 -0.6 93 0.4 SSW 13 13 7 7 1023.5 - 0.0
19/04:00am 0.4 -4.1 -0.6 93 0.4 S 13 15 7 8 1023.4 1023.8 0.0
19/03:30am 0.4 -3.8 -0.7 92 0.4 SSW 11 13 6 7 1023.5 - 0.0
19/03:00am 0.6 -3.2 -0.5 92 0.4 S 9 11 5 6 1023.6 1024.0 0.0
19/02:30am 0.6 -3.6 -0.7 91 0.5 S 11 13 6 7 1023.7 - 0.0
19/02:00am 1.1 -3.0 -0.5 89 0.6 S 11 13 6 7 1023.9 1024.3 0.0
19/01:30am 1.6 -2.5 -0.3 87 0.7 S 11 13 6 7 1024.0 - 0.0
19/01:00am 2.0 -1.7 0.1 87 0.7 S 9 13 5 7 1024.0 1024.4 0.0
19/12:30am 2.4 -0.9 0.1 85 0.9 S 7 11 4 6 1024.0 - 0.0
19/12:00am 2.7 -0.9 0.4 85 0.9 S 9 11 5 6 1023.8 1024.2 0.0
 
Date/Time
EST
Temp
°C
App
Temp
°C
Dew
Point
Rel
Hum
%
Delta-T
°C
Wind Press
QNH
hPa
Press
MSL
hPa
Rain
since 9 am
mm
Dir
 
Spd
km/h
Gust
km/h
Spd
kts
Gust
kts
18/11:30pm 2.9 -1.1 0.3 83 1.0 S 11 13 6 7 1023.9 - 0.0
18/11:00pm 3.4 -0.2 0.6 82 1.1 S 9 13 5 7 1023.9 1024.3 0.0
18/10:30pm 3.4 -1.0 0.6 82 1.1 S 13 15 7 8 1023.9 - 0.0
18/10:00pm 3.6 -0.4 0.8 82 1.1 S 11 15 6 8 1023.9 1024.3 0.0
18/09:30pm 4.0 0.1 1.0 81 1.2 S 11 15 6 8 1023.7 - 0.0
18/09:00pm 4.3 0.0 1.0 79 1.3 S 13 15 7 8 1023.6 1024.0 0.0
18/08:30pm 4.2 0.3 1.1 80 1.2 S 11 15 6 8 1023.4 - 0.0

Other Formats:

Comma delimited format used in spreadsheet applications
http://www.bom.gov.au/fwo/IDT60801/IDT60801.95966.axf

JavaScript Object Notation format (JSON) in row-major order
http://www.bom.gov.au/fwo/IDT60801/IDT60801.95966.json